sensor_id;sensor_type;location;lat;lon;timestamp;pressure;altitude;pressure_sealevel;temperature;humidity
61128;BME280;47013;42.664;23.242;2023-06-26T00:02:25;93846.59;;;19.79;100.00
61128;BME280;47013;42.664;23.242;2023-06-26T00:04:50;93845.06;;;19.78;100.00
61128;BME280;47013;42.664;23.242;2023-06-26T00:07:20;93844.59;;;19.79;100.00
61128;BME280;47013;42.664;23.242;2023-06-26T00:09:45;93843.69;;;19.82;100.00
61128;BME280;47013;42.664;23.242;2023-06-26T00:12:11;93844.16;;;19.81;100.00
61128;BME280;47013;42.664;23.242;2023-06-26T00:14:36;93848.91;;;19.80;100.00
61128;BME280;47013;42.664;23.242;2023-06-26T00:17:02;93849.06;;;19.77;100.00
61128;BME280;47013;42.664;23.242;2023-06-26T00:19:27;93846.31;;;19.77;100.00
61128;BME280;47013;42.664;23.242;2023-06-26T00:21:53;93850.91;;;19.80;100.00
61128;BME280;47013;42.664;23.242;2023-06-26T00:24:18;93844.94;;;19.81;100.00
61128;BME280;47013;42.664;23.242;2023-06-26T00:26:47;93845.84;;;19.78;100.00
61128;BME280;47013;42.664;23.242;2023-06-26T00:29:12;93838.88;;;19.68;100.00
61128;BME280;47013;42.664;23.242;2023-06-26T00:31:37;93840.41;;;19.69;100.00
61128;BME280;47013;42.664;23.242;2023-06-26T00:34:05;93840.88;;;19.67;100.00
61128;BME280;47013;42.664;23.242;2023-06-26T00:36:31;93834.19;;;19.50;100.00
61128;BME280;47013;42.664;23.242;2023-06-26T00:38:56;93838.91;;;19.50;100.00
61128;BME280;47013;42.664;23.242;2023-06-26T00:41:21;93837.09;;;19.56;100.00
61128;BME280;47013;42.664;23.242;2023-06-26T00:43:47;93830.84;;;19.46;100.00
61128;BME280;47013;42.664;23.242;2023-06-26T00:46:13;93837.69;;;19.51;100.00
61128;BME280;47013;42.664;23.242;2023-06-26T00:48:41;93830.56;;;19.44;100.00
61128;BME280;47013;42.664;23.242;2023-06-26T00:51:07;93829.16;;;19.49;100.00
61128;BME280;47013;42.664;23.242;2023-06-26T00:53:33;93818.16;;;19.49;100.00
61128;BME280;47013;42.664;23.242;2023-06-26T00:55:59;93820.63;;;19.37;100.00
61128;BME280;47013;42.664;23.242;2023-06-26T00:58:25;93820.94;;;19.39;100.00
61128;BME280;47013;42.664;23.242;2023-06-26T01:00:51;93821.19;;;19.18;100.00
61128;BME280;47013;42.664;23.242;2023-06-26T01:03:18;93811.84;;;19.24;100.00
61128;BME280;47013;42.664;23.242;2023-06-26T01:05:44;93814.75;;;19.21;100.00
61128;BME280;47013;42.664;23.242;2023-06-26T01:08:12;93815.81;;;19.23;100.00
61128;BME280;47013;42.664;23.242;2023-06-26T01:10:38;93814.63;;;19.15;100.00
61128;BME280;47013;42.664;23.242;2023-06-26T01:13:04;93803.13;;;19.26;100.00
61128;BME280;47013;42.664;23.242;2023-06-26T01:15:30;93804.03;;;19.32;100.00
61128;BME280;47013;42.664;23.242;2023-06-26T01:17:57;93794.66;;;19.38;100.00
61128;BME280;47013;42.664;23.242;2023-06-26T01:20:30;93800.59;;;19.46;100.00
61128;BME280;47013;42.664;23.242;2023-06-26T01:23:05;93787.72;;;19.28;100.00
61128;BME280;47013;42.664;23.242;2023-06-26T01:25:43;93791.53;;;19.22;100.00
61128;BME280;47013;42.664;23.242;2023-06-26T01:28:17;93790.81;;;19.12;100.00
61128;BME280;47013;42.664;23.242;2023-06-26T01:30:44;93790.50;;;19.19;100.00
61128;BME280;47013;42.664;23.242;2023-06-26T01:33:11;93785.00;;;19.19;100.00
61128;BME280;47013;42.664;23.242;2023-06-26T01:35:37;93785.78;;;19.10;100.00
61128;BME280;47013;42.664;23.242;2023-06-26T01:38:13;93781.19;;;19.17;100.00
61128;BME280;47013;42.664;23.242;2023-06-26T01:40:39;93785.28;;;19.21;100.00
61128;BME280;47013;42.664;23.242;2023-06-26T01:43:06;93788.31;;;19.23;100.00
61128;BME280;47013;42.664;23.242;2023-06-26T01:45:36;93789.09;;;19.24;100.00
61128;BME280;47013;42.664;23.242;2023-06-26T01:48:03;93783.75;;;19.20;100.00
61128;BME280;47013;42.664;23.242;2023-06-26T01:50:32;93785.28;;;19.21;100.00
61128;BME280;47013;42.664;23.242;2023-06-26T01:53:10;93785.09;;;19.25;100.00
61128;BME280;47013;42.664;23.242;2023-06-26T01:58:11;93776.09;;;19.24;100.00
61128;BME280;47013;42.664;23.242;2023-06-26T02:00:38;93774.63;;;19.14;100.00
61128;BME280;47013;42.664;23.242;2023-06-26T02:03:03;93773.00;;;18.98;100.00
61128;BME280;47013;42.664;23.242;2023-06-26T02:05:30;93779.59;;;18.92;100.00
61128;BME280;47013;42.664;23.242;2023-06-26T02:07:56;93773.94;;;18.95;100.00
61128;BME280;47013;42.664;23.242;2023-06-26T02:10:21;93773.28;;;19.00;100.00
61128;BME280;47013;42.664;23.242;2023-06-26T02:12:47;93789.47;;;18.98;100.00
61128;BME280;47013;42.664;23.242;2023-06-26T02:15:12;93778.97;;;18.97;100.00
61128;BME280;47013;42.664;23.242;2023-06-26T02:17:37;93773.63;;;18.93;100.00
61128;BME280;47013;42.664;23.242;2023-06-26T02:20:03;93770.41;;;18.95;100.00
61128;BME280;47013;42.664;23.242;2023-06-26T02:22:28;93768.13;;;18.93;100.00
61128;BME280;47013;42.664;23.242;2023-06-26T02:24:54;93770.63;;;18.82;100.00
61128;BME280;47013;42.664;23.242;2023-06-26T02:27:19;93771.06;;;18.80;100.00
61128;BME280;47013;42.664;23.242;2023-06-26T02:29:45;93774.59;;;18.81;100.00
61128;BME280;47013;42.664;23.242;2023-06-26T02:32:10;93777.63;;;18.83;100.00
61128;BME280;47013;42.664;23.242;2023-06-26T02:34:36;93780.06;;;18.81;100.00
61128;BME280;47013;42.664;23.242;2023-06-26T02:37:01;93778.09;;;18.72;100.00
61128;BME280;47013;42.664;23.242;2023-06-26T02:39:27;93781.63;;;18.73;100.00
61128;BME280;47013;42.664;23.242;2023-06-26T02:41:52;93784.34;;;18.73;100.00
61128;BME280;47013;42.664;23.242;2023-06-26T02:44:18;93782.09;;;18.53;100.00
61128;BME280;47013;42.664;23.242;2023-06-26T02:46:44;93792.63;;;18.64;100.00
61128;BME280;47013;42.664;23.242;2023-06-26T02:49:09;93779.34;;;18.53;100.00
61128;BME280;47013;42.664;23.242;2023-06-26T02:51:35;93786.81;;;18.52;100.00
61128;BME280;47013;42.664;23.242;2023-06-26T02:54:00;93788.47;;;18.59;100.00
61128;BME280;47013;42.664;23.242;2023-06-26T02:56:26;93778.41;;;18.56;100.00
61128;BME280;47013;42.664;23.242;2023-06-26T02:58:57;93784.97;;;18.58;100.00
61128;BME280;47013;42.664;23.242;2023-06-26T03:01:23;93785.72;;;18.59;100.00
61128;BME280;47013;42.664;23.242;2023-06-26T03:03:48;93785.47;;;18.66;100.00
61128;BME280;47013;42.664;23.242;2023-06-26T03:06:14;93778.28;;;18.69;100.00
61128;BME280;47013;42.664;23.242;2023-06-26T03:08:40;93788.34;;;18.53;100.00
61128;BME280;47013;42.664;23.242;2023-06-26T03:11:06;93789.88;;;18.54;100.00
61128;BME280;47013;42.664;23.242;2023-06-26T03:13:33;93789.28;;;18.50;100.00
61128;BME280;47013;42.664;23.242;2023-06-26T03:15:59;93789.56;;;18.52;100.00
61128;BME280;47013;42.664;23.242;2023-06-26T03:18:24;93794.00;;;18.50;100.00
61128;BME280;47013;42.664;23.242;2023-06-26T03:20:50;93793.06;;;18.53;100.00
61128;BME280;47013;42.664;23.242;2023-06-26T03:23:15;93799.75;;;18.61;100.00
61128;BME280;47013;42.664;23.242;2023-06-26T03:25:41;93796.16;;;18.64;100.00
61128;BME280;47013;42.664;23.242;2023-06-26T03:28:07;93795.06;;;18.52;100.00
61128;BME280;47013;42.664;23.242;2023-06-26T03:30:32;93795.19;;;18.58;100.00
61128;BME280;47013;42.664;23.242;2023-06-26T03:32:57;93793.53;;;18.51;100.00
61128;BME280;47013;42.664;23.242;2023-06-26T03:35:23;93793.84;;;18.17;100.00
61128;BME280;47013;42.664;23.242;2023-06-26T03:37:49;93804.22;;;18.31;100.00
61128;BME280;47013;42.664;23.242;2023-06-26T03:40:14;93798.72;;;18.22;100.00
61128;BME280;47013;42.664;23.242;2023-06-26T03:42:40;93802.09;;;18.26;100.00
61128;BME280;47013;42.664;23.242;2023-06-26T03:45:05;93795.84;;;18.16;100.00
61128;BME280;47013;42.664;23.242;2023-06-26T03:47:31;93790.94;;;18.20;100.00
61128;BME280;47013;42.664;23.242;2023-06-26T03:49:56;93797.66;;;18.28;100.00
61128;BME280;47013;42.664;23.242;2023-06-26T03:52:22;93789.09;;;18.36;100.00
61128;BME280;47013;42.664;23.242;2023-06-26T03:54:47;93795.06;;;18.43;100.00
61128;BME280;47013;42.664;23.242;2023-06-26T03:57:14;93789.09;;;18.54;100.00
61128;BME280;47013;42.664;23.242;2023-06-26T03:59:39;93795.81;;;18.53;100.00
61128;BME280;47013;42.664;23.242;2023-06-26T04:02:04;93789.88;;;18.54;100.00
61128;BME280;47013;42.664;23.242;2023-06-26T04:04:30;93797.63;;;18.56;100.00
61128;BME280;47013;42.664;23.242;2023-06-26T04:06:55;93798.09;;;18.54;100.00
61128;BME280;47013;42.664;23.242;2023-06-26T04:09:21;93802.97;;;18.60;100.00
61128;BME280;47013;42.664;23.242;2023-06-26T04:11:46;93799.94;;;18.48;100.00
61128;BME280;47013;42.664;23.242;2023-06-26T04:14:11;93793.69;;;18.48;100.00
61128;BME280;47013;42.664;23.242;2023-06-26T04:16:38;93798.44;;;18.29;100.00
61128;BME280;47013;42.664;23.242;2023-06-26T04:19:03;93797.22;;;18.30;100.00
61128;BME280;47013;42.664;23.242;2023-06-26T04:21:30;93799.03;;;18.33;100.00
61128;BME280;47013;42.664;23.242;2023-06-26T04:23:55;93796.75;;;18.41;100.00
61128;BME280;47013;42.664;23.242;2023-06-26T04:26:21;93806.97;;;18.49;100.00
61128;BME280;47013;42.664;23.242;2023-06-26T04:28:47;93807.88;;;18.55;100.00
61128;BME280;47013;42.664;23.242;2023-06-26T04:31:12;93809.22;;;18.60;100.00
61128;BME280;47013;42.664;23.242;2023-06-26T04:33:38;93799.94;;;18.57;100.00
61128;BME280;47013;42.664;23.242;2023-06-26T04:36:04;93799.03;;;18.70;100.00
61128;BME280;47013;42.664;23.242;2023-06-26T04:38:31;93802.06;;;18.72;100.00
61128;BME280;47013;42.664;23.242;2023-06-26T04:40:57;93812.56;;;18.82;100.00
61128;BME280;47013;42.664;23.242;2023-06-26T04:43:23;93802.63;;;18.94;100.00
61128;BME280;47013;42.664;23.242;2023-06-26T04:45:48;93806.88;;;19.04;100.00
61128;BME280;47013;42.664;23.242;2023-06-26T04:48:14;93800.00;;;19.09;100.00
61128;BME280;47013;42.664;23.242;2023-06-26T04:50:39;93804.34;;;19.25;100.00
61128;BME280;47013;42.664;23.242;2023-06-26T04:53:05;93808.59;;;19.35;100.00
61128;BME280;47013;42.664;23.242;2023-06-26T04:55:30;93809.63;;;19.47;100.00
61128;BME280;47013;42.664;23.242;2023-06-26T04:57:56;93811.28;;;19.53;100.00
61128;BME280;47013;42.664;23.242;2023-06-26T05:00:21;93806.22;;;19.61;100.00
61128;BME280;47013;42.664;23.242;2023-06-26T05:02:47;93804.66;;;19.69;100.00
61128;BME280;47013;42.664;23.242;2023-06-26T05:05:13;93804.94;;;19.71;100.00
61128;BME280;47013;42.664;23.242;2023-06-26T05:07:40;93812.25;;;19.74;100.00
61128;BME280;47013;42.664;23.242;2023-06-26T05:10:06;93811.31;;;19.77;100.00
61128;BME280;47013;42.664;23.242;2023-06-26T05:12:32;93812.50;;;19.85;100.00
61128;BME280;47013;42.664;23.242;2023-06-26T05:14:57;93812.25;;;19.98;100.00
61128;BME280;47013;42.664;23.242;2023-06-26T05:17:22;93811.31;;;20.01;100.00
61128;BME280;47013;42.664;23.242;2023-06-26T05:19:48;93818.53;;;19.98;100.00
61128;BME280;47013;42.664;23.242;2023-06-26T05:22:13;93822.97;;;19.96;100.00
61128;BME280;47013;42.664;23.242;2023-06-26T05:24:40;93815.28;;;20.00;100.00
61128;BME280;47013;42.664;23.242;2023-06-26T05:27:05;93805.81;;;20.01;100.00
61128;BME280;47013;42.664;23.242;2023-06-26T05:29:32;93822.03;;;19.99;100.00
61128;BME280;47013;42.664;23.242;2023-06-26T05:31:58;93817.28;;;19.99;100.00
61128;BME280;47013;42.664;23.242;2023-06-26T05:34:24;93813.97;;;19.95;100.00
61128;BME280;47013;42.664;23.242;2023-06-26T05:36:51;93821.56;;;20.00;100.00
61128;BME280;47013;42.664;23.242;2023-06-26T05:39:17;93821.59;;;19.91;100.00
61128;BME280;47013;42.664;23.242;2023-06-26T05:41:46;93826.34;;;19.91;100.00
61128;BME280;47013;42.664;23.242;2023-06-26T05:44:11;93828.34;;;19.90;100.00
61128;BME280;47013;42.664;23.242;2023-06-26T05:46:37;93832.03;;;19.87;100.00
61128;BME280;47013;42.664;23.242;2023-06-26T05:49:03;93835.25;;;19.86;100.00
61128;BME280;47013;42.664;23.242;2023-06-26T05:51:29;93835.38;;;19.91;100.00
61128;BME280;47013;42.664;23.242;2023-06-26T05:53:54;93832.28;;;19.98;100.00
61128;BME280;47013;42.664;23.242;2023-06-26T05:56:20;93826.88;;;20.04;99.36
61128;BME280;47013;42.664;23.242;2023-06-26T05:58:46;93831.09;;;20.14;100.00
61128;BME280;47013;42.664;23.242;2023-06-26T06:01:12;93829.25;;;20.20;100.00
61128;BME280;47013;42.664;23.242;2023-06-26T06:03:39;93831.03;;;20.23;99.86
61128;BME280;47013;42.664;23.242;2023-06-26T06:06:05;93828.38;;;20.29;98.37
61128;BME280;47013;42.664;23.242;2023-06-26T06:08:30;93829.28;;;20.35;99.71
61128;BME280;47013;42.664;23.242;2023-06-26T06:10:55;93826.19;;;20.42;98.98
61128;BME280;47013;42.664;23.242;2023-06-26T06:13:21;93833.31;;;20.49;97.92
61128;BME280;47013;42.664;23.242;2023-06-26T06:15:46;93828.56;;;20.49;98.82
61128;BME280;47013;42.664;23.242;2023-06-26T06:18:12;93830.50;;;20.58;98.79
61128;BME280;47013;42.664;23.242;2023-06-26T06:20:37;93838.19;;;20.69;97.41
61128;BME280;47013;42.664;23.242;2023-06-26T06:23:02;93826.34;;;20.77;94.50
61128;BME280;47013;42.664;23.242;2023-06-26T06:25:28;93827.78;;;20.87;93.40
61128;BME280;47013;42.664;23.242;2023-06-26T06:27:53;93829.78;;;20.87;93.72
61128;BME280;47013;42.664;23.242;2023-06-26T06:30:19;93829.56;;;20.90;93.01
61128;BME280;47013;42.664;23.242;2023-06-26T06:32:44;93825.09;;;20.93;91.35
61128;BME280;47013;42.664;23.242;2023-06-26T06:35:11;93828.06;;;21.04;91.95
61128;BME280;47013;42.664;23.242;2023-06-26T06:37:39;93824.75;;;21.00;91.47
61128;BME280;47013;42.664;23.242;2023-06-26T06:40:09;93827.97;;;21.13;90.35
61128;BME280;47013;42.664;23.242;2023-06-26T06:42:35;93826.47;;;21.27;90.48
61128;BME280;47013;42.664;23.242;2023-06-26T06:45:04;93819.13;;;21.39;88.60
61128;BME280;47013;42.664;23.242;2023-06-26T06:47:31;93830.97;;;21.60;87.76
61128;BME280;47013;42.664;23.242;2023-06-26T06:49:57;93821.28;;;21.64;88.19
61128;BME280;47013;42.664;23.242;2023-06-26T06:52:22;93821.22;;;21.79;85.63
61128;BME280;47013;42.664;23.242;2023-06-26T06:54:52;93826.75;;;21.99;85.90
61128;BME280;47013;42.664;23.242;2023-06-26T06:57:19;93826.41;;;22.06;85.25
61128;BME280;47013;42.664;23.242;2023-06-26T06:59:45;93830.06;;;22.18;84.49
61128;BME280;47013;42.664;23.242;2023-06-26T07:02:10;93825.97;;;22.34;84.23
61128;BME280;47013;42.664;23.242;2023-06-26T07:04:36;93820.50;;;22.40;84.07
61128;BME280;47013;42.664;23.242;2023-06-26T07:07:02;93823.84;;;22.44;83.41
61128;BME280;47013;42.664;23.242;2023-06-26T07:09:28;93815.59;;;22.49;82.34
61128;BME280;47013;42.664;23.242;2023-06-26T07:11:53;93826.47;;;22.32;82.13
61128;BME280;47013;42.664;23.242;2023-06-26T07:14:19;93823.84;;;22.23;81.67
61128;BME280;47013;42.664;23.242;2023-06-26T07:16:44;93817.16;;;22.30;80.64
61128;BME280;47013;42.664;23.242;2023-06-26T07:19:09;93818.59;;;22.46;79.71
61128;BME280;47013;42.664;23.242;2023-06-26T07:21:35;93815.72;;;22.60;78.48
61128;BME280;47013;42.664;23.242;2023-06-26T07:24:00;93818.94;;;22.53;79.34
61128;BME280;47013;42.664;23.242;2023-06-26T07:26:25;93815.31;;;22.67;79.22
61128;BME280;47013;42.664;23.242;2023-06-26T07:28:51;93816.53;;;22.87;76.10
61128;BME280;47013;42.664;23.242;2023-06-26T07:31:16;93808.84;;;22.97;75.12
61128;BME280;47013;42.664;23.242;2023-06-26T07:33:42;93823.28;;;23.06;75.43
61128;BME280;47013;42.664;23.242;2023-06-26T07:36:07;93815.13;;;22.97;73.36
61128;BME280;47013;42.664;23.242;2023-06-26T07:38:32;93820.59;;;22.91;73.76
61128;BME280;47013;42.664;23.242;2023-06-26T07:40:58;93817.91;;;22.97;70.04
61128;BME280;47013;42.664;23.242;2023-06-26T07:43:23;93823.09;;;22.89;72.42
61128;BME280;47013;42.664;23.242;2023-06-26T07:45:49;93815.44;;;22.79;74.30
61128;BME280;47013;42.664;23.242;2023-06-26T07:48:16;93822.28;;;22.83;74.69
61128;BME280;47013;42.664;23.242;2023-06-26T07:50:42;93824.19;;;22.77;74.80
61128;BME280;47013;42.664;23.242;2023-06-26T07:53:07;93818.97;;;22.79;72.04
61128;BME280;47013;42.664;23.242;2023-06-26T07:55:33;93827.72;;;22.78;73.00
61128;BME280;47013;42.664;23.242;2023-06-26T07:57:58;93831.47;;;22.95;74.95
61128;BME280;47013;42.664;23.242;2023-06-26T08:00:24;93824.53;;;23.05;71.90
61128;BME280;47013;42.664;23.242;2023-06-26T08:02:49;93827.81;;;23.09;71.54
61128;BME280;47013;42.664;23.242;2023-06-26T08:05:15;93825.06;;;23.09;71.81
61128;BME280;47013;42.664;23.242;2023-06-26T08:07:40;93824.28;;;23.09;70.20
61128;BME280;47013;42.664;23.242;2023-06-26T08:10:06;93825.94;;;23.27;71.94
61128;BME280;47013;42.664;23.242;2023-06-26T08:12:31;93816.75;;;23.41;69.88
61128;BME280;47013;42.664;23.242;2023-06-26T08:14:59;93822.22;;;23.61;68.96
61128;BME280;47013;42.664;23.242;2023-06-26T08:17:27;93821.75;;;23.68;68.93
61128;BME280;47013;42.664;23.242;2023-06-26T08:19:53;93814.28;;;23.80;68.79
61128;BME280;47013;42.664;23.242;2023-06-26T08:22:18;93813.09;;;23.92;65.92
61128;BME280;47013;42.664;23.242;2023-06-26T08:24:43;93818.81;;;23.77;67.52
61128;BME280;47013;42.664;23.242;2023-06-26T08:27:09;93818.31;;;23.79;69.22
61128;BME280;47013;42.664;23.242;2023-06-26T08:29:34;93809.91;;;24.05;68.00
61128;BME280;47013;42.664;23.242;2023-06-26T08:31:59;93818.59;;;24.29;65.61
61128;BME280;47013;42.664;23.242;2023-06-26T08:34:27;93816.78;;;24.21;61.63
61128;BME280;47013;42.664;23.242;2023-06-26T08:36:52;93819.41;;;23.93;64.42
61128;BME280;47013;42.664;23.242;2023-06-26T08:39:18;93824.94;;;23.93;63.17
61128;BME280;47013;42.664;23.242;2023-06-26T08:41:44;93810.88;;;23.96;63.03
61128;BME280;47013;42.664;23.242;2023-06-26T08:44:09;93814.72;;;24.10;62.51
61128;BME280;47013;42.664;23.242;2023-06-26T08:46:35;93809.97;;;24.16;62.23
61128;BME280;47013;42.664;23.242;2023-06-26T08:49:06;93814.50;;;24.13;63.09
61128;BME280;47013;42.664;23.242;2023-06-26T08:51:38;93816.50;;;24.13;63.75
61128;BME280;47013;42.664;23.242;2023-06-26T08:54:06;93819.00;;;24.11;62.37
61128;BME280;47013;42.664;23.242;2023-06-26T08:56:41;93821.53;;;24.09;61.46
61128;BME280;47013;42.664;23.242;2023-06-26T08:59:07;93818.78;;;24.20;61.86
61128;BME280;47013;42.664;23.242;2023-06-26T09:01:33;93808.09;;;24.45;60.15
61128;BME280;47013;42.664;23.242;2023-06-26T09:03:59;93823.00;;;24.53;62.23
61128;BME280;47013;42.664;23.242;2023-06-26T09:06:24;93816.91;;;24.37;62.50
61128;BME280;47013;42.664;23.242;2023-06-26T09:08:49;93817.25;;;24.62;60.86
61128;BME280;47013;42.664;23.242;2023-06-26T09:11:15;93814.75;;;24.81;60.00
61128;BME280;47013;42.664;23.242;2023-06-26T09:13:41;93816.88;;;25.14;58.98
61128;BME280;47013;42.664;23.242;2023-06-26T09:16:08;93818.38;;;25.15;59.38
61128;BME280;47013;42.664;23.242;2023-06-26T09:18:34;93810.56;;;25.02;57.76
61128;BME280;47013;42.664;23.242;2023-06-26T09:20:59;93811.00;;;24.89;58.96
61128;BME280;47013;42.664;23.242;2023-06-26T09:23:26;93812.50;;;24.79;57.75
61128;BME280;47013;42.664;23.242;2023-06-26T09:25:52;93816.25;;;24.70;60.18
61128;BME280;47013;42.664;23.242;2023-06-26T09:28:17;93806.69;;;24.77;60.52
61128;BME280;47013;42.664;23.242;2023-06-26T09:30:44;93812.50;;;24.90;59.56
61128;BME280;47013;42.664;23.242;2023-06-26T09:33:19;93815.75;;;24.78;58.55
61128;BME280;47013;42.664;23.242;2023-06-26T09:35:46;93813.53;;;24.93;59.71
61128;BME280;47013;42.664;23.242;2023-06-26T09:38:12;93809.31;;;25.14;58.24
61128;BME280;47013;42.664;23.242;2023-06-26T09:40:38;93809.06;;;25.40;55.21
61128;BME280;47013;42.664;23.242;2023-06-26T09:43:07;93807.25;;;25.65;54.65
61128;BME280;47013;42.664;23.242;2023-06-26T09:45:34;93805.00;;;25.86;54.37
61128;BME280;47013;42.664;23.242;2023-06-26T09:48:02;93809.56;;;25.83;53.70
61128;BME280;47013;42.664;23.242;2023-06-26T09:50:28;93803.97;;;26.00;54.30
61128;BME280;47013;42.664;23.242;2023-06-26T09:52:55;93809.00;;;26.02;50.05
61128;BME280;47013;42.664;23.242;2023-06-26T09:55:21;93808.25;;;25.90;53.66
61128;BME280;47013;42.664;23.242;2023-06-26T09:57:52;93809.31;;;25.70;50.97
61128;BME280;47013;42.664;23.242;2023-06-26T10:00:19;93810.81;;;25.49;51.74
61128;BME280;47013;42.664;23.242;2023-06-26T10:02:44;93810.81;;;25.60;50.50
61128;BME280;47013;42.664;23.242;2023-06-26T10:05:10;93803.00;;;25.70;50.18
61128;BME280;47013;42.664;23.242;2023-06-26T10:07:37;93807.25;;;25.87;53.12
61128;BME280;47013;42.664;23.242;2023-06-26T10:10:02;93803.19;;;26.11;50.60
61128;BME280;47013;42.664;23.242;2023-06-26T10:12:30;93805.88;;;26.39;49.79
61128;BME280;47013;42.664;23.242;2023-06-26T10:14:57;93791.13;;;26.61;48.85
61128;BME280;47013;42.664;23.242;2023-06-26T10:17:25;93799.59;;;26.85;48.23
61128;BME280;47013;42.664;23.242;2023-06-26T10:19:53;93794.94;;;27.04;49.11
61128;BME280;47013;42.664;23.242;2023-06-26T10:22:23;93800.66;;;27.23;50.18
61128;BME280;47013;42.664;23.242;2023-06-26T10:24:50;93797.88;;;27.23;46.03
61128;BME280;47013;42.664;23.242;2023-06-26T10:27:21;93795.28;;;26.90;45.85
61128;BME280;47013;42.664;23.242;2023-06-26T10:29:53;93797.34;;;26.84;47.17
61128;BME280;47013;42.664;23.242;2023-06-26T10:32:20;93797.97;;;26.60;47.95
61128;BME280;47013;42.664;23.242;2023-06-26T10:34:46;93799.50;;;26.55;48.84
61128;BME280;47013;42.664;23.242;2023-06-26T10:37:12;93799.06;;;26.40;48.19
61128;BME280;47013;42.664;23.242;2023-06-26T10:39:48;93798.59;;;26.25;47.71
61128;BME280;47013;42.664;23.242;2023-06-26T10:42:18;93803.41;;;26.19;48.94
61128;BME280;47013;42.664;23.242;2023-06-26T10:44:46;93794.09;;;26.10;48.12
61128;BME280;47013;42.664;23.242;2023-06-26T10:49:54;93794.16;;;25.66;50.14
61128;BME280;47013;42.664;23.242;2023-06-26T10:52:19;93784.31;;;25.59;50.81
61128;BME280;47013;42.664;23.242;2023-06-26T10:54:45;93793.66;;;25.50;51.58
61128;BME280;47013;42.664;23.242;2023-06-26T10:57:10;93788.63;;;25.26;52.49
61128;BME280;47013;42.664;23.242;2023-06-26T10:59:39;93791.66;;;25.28;51.90
61128;BME280;47013;42.664;23.242;2023-06-26T11:02:05;93781.06;;;25.27;52.39
61128;BME280;47013;42.664;23.242;2023-06-26T11:12:38;93778.53;;;25.18;52.84
61128;BME280;47013;42.664;23.242;2023-06-26T11:17:37;93780.50;;;24.89;55.33
61128;BME280;47013;42.664;23.242;2023-06-26T11:20:07;93783.25;;;24.84;55.17
61128;BME280;47013;42.664;23.242;2023-06-26T11:22:37;93788.53;;;24.82;54.81
61128;BME280;47013;42.664;23.242;2023-06-26T11:25:04;93780.69;;;24.69;53.52
61128;BME280;47013;42.664;23.242;2023-06-26T11:27:40;93785.19;;;24.61;52.50
61128;BME280;47013;42.664;23.242;2023-06-26T11:30:07;93786.00;;;24.73;52.74
61128;BME280;47013;42.664;23.242;2023-06-26T11:32:33;93778.19;;;24.71;52.26
61128;BME280;47013;42.664;23.242;2023-06-26T11:35:01;93787.28;;;24.77;52.23
61128;BME280;47013;42.664;23.242;2023-06-26T11:37:27;93788.28;;;24.74;52.20
61128;BME280;47013;42.664;23.242;2023-06-26T11:39:52;93775.66;;;24.67;52.41
61128;BME280;47013;42.664;23.242;2023-06-26T11:42:19;93781.41;;;24.58;52.46
61128;BME280;47013;42.664;23.242;2023-06-26T11:44:44;93777.38;;;24.48;52.28
61128;BME280;47013;42.664;23.242;2023-06-26T11:47:20;93771.59;;;24.57;52.86
61128;BME280;47013;42.664;23.242;2023-06-26T11:49:47;93781.19;;;24.62;53.70
61128;BME280;47013;42.664;23.242;2023-06-26T11:52:15;93781.44;;;24.69;53.94
61128;BME280;47013;42.664;23.242;2023-06-26T11:54:41;93777.41;;;24.70;53.86
61128;BME280;47013;42.664;23.242;2023-06-26T11:57:07;93780.44;;;24.67;54.33
61128;BME280;47013;42.664;23.242;2023-06-26T11:59:38;93782.75;;;24.91;52.15
61128;BME280;47013;42.664;23.242;2023-06-26T12:02:09;93784.31;;;25.20;53.59
61128;BME280;47013;42.664;23.242;2023-06-26T12:04:36;93766.38;;;25.60;49.78
61128;BME280;47013;42.664;23.242;2023-06-26T12:07:02;93765.56;;;26.04;50.39
61128;BME280;47013;42.664;23.242;2023-06-26T12:09:30;93772.78;;;26.30;49.82
61128;BME280;47013;42.664;23.242;2023-06-26T12:11:59;93773.69;;;26.60;44.69
61128;BME280;47013;42.664;23.242;2023-06-26T12:14:25;93775.66;;;26.71;45.03
61128;BME280;47013;42.664;23.242;2023-06-26T12:16:52;93773.31;;;26.81;46.08
61128;BME280;47013;42.664;23.242;2023-06-26T12:19:17;93774.81;;;26.82;45.01
61128;BME280;47013;42.664;23.242;2023-06-26T12:21:49;93768.50;;;26.81;45.46
61128;BME280;47013;42.664;23.242;2023-06-26T12:24:19;93776.66;;;26.73;43.09
61128;BME280;47013;42.664;23.242;2023-06-26T12:26:50;93782.50;;;26.70;44.89
61128;BME280;47013;42.664;23.242;2023-06-26T12:29:19;93769.06;;;26.74;46.88
61128;BME280;47013;42.664;23.242;2023-06-26T12:31:48;93777.47;;;26.63;44.95
61128;BME280;47013;42.664;23.242;2023-06-26T12:34:15;93779.78;;;26.59;45.62
61128;BME280;47013;42.664;23.242;2023-06-26T12:36:44;93772.19;;;26.54;46.67
61128;BME280;47013;42.664;23.242;2023-06-26T12:39:11;93778.03;;;26.50;46.23
61128;BME280;47013;42.664;23.242;2023-06-26T12:41:54;93771.25;;;26.40;46.01
61128;BME280;47013;42.664;23.242;2023-06-26T12:44:30;93779.59;;;26.34;46.98
61128;BME280;47013;42.664;23.242;2023-06-26T12:47:00;93770.75;;;26.41;47.68
61128;BME280;47013;42.664;23.242;2023-06-26T12:49:38;93770.28;;;26.26;48.87
61128;BME280;47013;42.664;23.242;2023-06-26T12:52:09;93763.97;;;26.26;48.39
61128;BME280;47013;42.664;23.242;2023-06-26T12:54:35;93764.75;;;26.21;47.30
61128;BME280;47013;42.664;23.242;2023-06-26T12:57:01;93760.94;;;26.24;49.31
61128;BME280;47013;42.664;23.242;2023-06-26T12:59:29;93771.06;;;26.21;49.80